Time;durP1;ratioP1;P1;durP2;ratioP2;P2;SDS_P1;SDS_P2;PMS_P1;PMS_P2;Temp;Humidity;BMP_temperature;BMP_pressure;BME280_temperature;BME280_humidity;BME280_pressure;Samples;Min_cycle;Max_cycle;Signal;HPM_P1;HPM_P2
2022/01/18 00:00:48;;;;;;;;;;;1.20;81.30;;;;;;5022111;28;89296;-42
2022/01/18 00:03:14;;;;;;;;;;;1.20;81.30;;;;;;5022846;28;87162;-42
2022/01/18 00:05:42;;;;;;;;;;;1.20;81.40;;;;;;5023175;28;87307;-42
2022/01/18 00:08:08;;;;;;;;;;;1.20;82.00;;;;;;5022381;28;89108;-42
2022/01/18 00:10:33;;;;;;;;;;;1.20;81.40;;;;;;5022813;28;87007;-42
2022/01/18 00:15:32;;;;;;;;;;;1.20;81.40;;;;;;5023263;28;86309;-42
2022/01/18 00:20:45;;;;;;;;;;;1.20;81.40;;;;;;5020867;28;87976;-42
2022/01/18 00:23:11;;;;;;;;;;;1.20;81.30;;;;;;5022158;28;87866;-42
2022/01/18 00:25:40;;;;;;;;;;;1.20;81.50;;;;;;5022557;28;89423;-42
2022/01/18 00:28:06;;;;;;;;;;;1.20;81.40;;;;;;5022159;28;89514;-42
2022/01/18 00:33:24;;;;;;;;;;;1.20;81.40;;;;;;5021227;28;87407;-42
2022/01/18 00:35:58;;;;;;;;;;;1.10;81.60;;;;;;5025195;28;89655;-42
2022/01/18 00:38:45;;;;;;;;;;;1.20;81.60;;;;;;5023211;28;88974;-42
2022/01/18 00:41:11;;;;;;;;;;;1.20;81.60;;;;;;5025857;28;89159;-42
2022/01/18 00:43:37;;;;;;;;;;;1.10;81.60;;;;;;5026034;28;86969;-42
2022/01/18 00:46:02;;;;;;;;;;;1.10;81.60;;;;;;5025903;28;88211;-42
2022/01/18 00:48:32;;;;;;;;;;;1.20;81.60;;;;;;5024682;28;90608;-42
2022/01/18 00:50:58;;;;;;;;;;;1.20;81.50;;;;;;5025601;28;86980;-42
2022/01/18 00:53:25;;;;;;;;;;;1.20;81.40;;;;;;5025709;28;88561;-42
2022/01/18 00:56:10;;;;;;;;;;;1.20;81.50;;;;;;5025445;28;88508;-42
2022/01/18 00:58:36;;;;;;;;;;;1.20;81.80;;;;;;5028738;28;86897;-42
2022/01/18 01:01:02;;;;;;;;;;;1.20;81.60;;;;;;5025099;28;89413;-42
2022/01/18 01:03:28;;;;;;;;;;;1.20;81.80;;;;;;5025346;28;87179;-42
2022/01/18 01:05:53;;;;;;;;;;;1.20;81.80;;;;;;5026230;28;88990;-42
2022/01/18 01:08:19;;;;;;;;;;;1.20;81.90;;;;;;5024990;28;89705;-42
2022/01/18 01:11:03;;;;;;;;;;;1.20;81.70;;;;;;5025321;28;87109;-41
2022/01/18 01:13:30;;;;;;;;;;;1.20;81.80;;;;;;5024949;28;87788;-41
2022/01/18 01:45:31;;;;;;;;;;;1.20;81.40;;;;;;5024990;28;87111;-41
2022/01/18 01:47:59;;;;;;;;;;;1.20;81.30;;;;;;5025016;28;88916;-41
2022/01/18 01:50:28;;;;;;;;;;;1.20;81.20;;;;;;5023301;28;89262;-42
2022/01/18 01:52:55;;;;;;;;;;;1.20;81.10;;;;;;5024839;28;87095;-41
2022/01/18 01:55:22;;;;;;;;;;;1.10;80.90;;;;;;5024838;28;88799;-41
2022/01/18 01:57:47;;;;;;;;;;;1.10;80.90;;;;;;5024543;28;89676;-42
2022/01/18 02:00:15;;;;;;;;;;;1.20;80.70;;;;;;5024888;28;86730;-42
2022/01/18 02:02:41;;;;;;;;;;;1.20;80.60;;;;;;5024584;28;88361;-42
2022/01/18 02:05:07;;;;;;;;;;;1.10;80.70;;;;;;5025265;28;92264;-41
2022/01/18 02:07:33;;;;;;;;;;;1.10;80.50;;;;;;5024478;28;90604;-41
2022/01/18 02:09:58;;;;;;;;;;;1.10;80.30;;;;;;5024031;28;90148;-42
2022/01/18 02:12:24;;;;;;;;;;;1.10;80.10;;;;;;5024150;28;87115;-41
2022/01/18 02:14:56;;;;;;;;;;;1.10;79.90;;;;;;5024456;28;88745;-41
2022/01/18 02:22:51;;;;;;;;;;;1.10;79.40;;;;;;5024867;28;86566;-41
2022/01/18 02:25:16;;;;;;;;;;;1.10;79.30;;;;;;5024190;28;89220;-41
2022/01/18 02:27:42;;;;;;;;;;;1.10;79.40;;;;;;5027032;28;87142;-41
2022/01/18 02:30:07;;;;;;;;;;;1.10;79.40;;;;;;5023487;28;88009;-41
2022/01/18 02:32:33;;;;;;;;;;;1.10;78.90;;;;;;5024364;28;86735;-42
2022/01/18 02:34:59;;;;;;;;;;;1.10;79.40;;;;;;5024104;28;89177;-41
2022/01/18 02:37:24;;;;;;;;;;;1.10;78.90;;;;;;5023693;28;89568;-41
2022/01/18 02:39:50;;;;;;;;;;;1.00;79.30;;;;;;5023889;28;87172;-41
2022/01/18 02:42:20;;;;;;;;;;;1.00;78.90;;;;;;5023456;28;88709;-41
2022/01/18 02:44:46;;;;;;;;;;;1.10;78.30;;;;;;5023633;28;88721;-41
2022/01/18 02:47:11;;;;;;;;;;;1.00;78.50;;;;;;5024485;28;86412;-41
2022/01/18 02:49:37;;;;;;;;;;;1.00;78.70;;;;;;5026624;28;88063;-42
2022/01/18 02:52:03;;;;;;;;;;;1.00;78.40;;;;;;5023665;28;87151;-41
2022/01/18 02:54:28;;;;;;;;;;;1.00;78.50;;;;;;5023084;28;88454;-41
2022/01/18 02:56:59;;;;;;;;;;;1.00;78.30;;;;;;5023386;28;89397;-41
2022/01/18 02:59:33;;;;;;;;;;;1.00;78.20;;;;;;5023855;28;86906;-41
2022/01/18 03:04:45;;;;;;;;;;;1.00;77.90;;;;;;5023426;28;86942;-41
2022/01/18 03:07:11;;;;;;;;;;;1.00;77.80;;;;;;5023617;28;87060;-41
2022/01/18 03:09:37;;;;;;;;;;;1.00;77.80;;;;;;5023499;28;88945;-41
2022/01/18 03:12:03;;;;;;;;;;;1.00;77.70;;;;;;5026559;28;88487;-41
2022/01/18 03:14:29;;;;;;;;;;;1.00;77.60;;;;;;5023619;28;89183;-41
2022/01/18 03:16:54;;;;;;;;;;;1.00;77.20;;;;;;5023246;28;88033;-41
2022/01/18 03:19:20;;;;;;;;;;;0.90;77.50;;;;;;5022565;28;88085;-41
2022/01/18 03:21:45;;;;;;;;;;;0.90;77.70;;;;;;5023492;28;90070;-41
2022/01/18 03:24:31;;;;;;;;;;;0.90;77.40;;;;;;5022959;28;89309;-41
2022/01/18 03:29:40;;;;;;;;;;;0.90;77.10;;;;;;5023216;28;86859;-41
2022/01/18 03:32:06;;;;;;;;;;;0.90;77.40;;;;;;5026009;28;89653;-41
2022/01/18 03:34:32;;;;;;;;;;;0.90;77.50;;;;;;5023566;28;86995;-41
2022/01/18 03:36:58;;;;;;;;;;;0.90;77.40;;;;;;5023318;28;88997;-41
2022/01/18 03:39:24;;;;;;;;;;;0.90;77.10;;;;;;5023123;28;87127;-41
2022/01/18 03:41:55;;;;;;;;;;;0.90;77.60;;;;;;5022550;28;88677;-41
2022/01/18 03:44:22;;;;;;;;;;;0.90;77.40;;;;;;5021860;28;90490;-41
2022/01/18 03:46:49;;;;;;;;;;;0.90;77.10;;;;;;5023310;28;87111;-41
2022/01/18 03:49:14;;;;;;;;;;;0.80;77.10;;;;;;5023001;28;88746;-42
2022/01/18 03:51:40;;;;;;;;;;;0.80;77.00;;;;;;5022798;28;89281;-41
2022/01/18 03:54:06;;;;;;;;;;;0.90;76.90;;;;;;5026147;28;87198;-41
2022/01/18 03:56:31;;;;;;;;;;;0.80;77.20;;;;;;5022685;28;89317;-41
2022/01/18 03:58:57;;;;;;;;;;;0.80;77.00;;;;;;5022976;28;87249;-41
2022/01/18 04:01:22;;;;;;;;;;;0.80;77.00;;;;;;5023327;28;88563;-41
2022/01/18 04:03:48;;;;;;;;;;;0.80;77.00;;;;;;5022627;28;89510;-41
2022/01/18 04:06:13;;;;;;;;;;;0.80;76.80;;;;;;5023061;28;87160;-41
2022/01/18 04:08:39;;;;;;;;;;;0.80;76.60;;;;;;5022368;28;88616;-41
2022/01/18 04:11:05;;;;;;;;;;;0.80;76.90;;;;;;5022616;28;89013;-41
2022/01/18 04:13:30;;;;;;;;;;;0.80;76.30;;;;;;5023713;28;87112;-41
2022/01/18 04:15:56;;;;;;;;;;;0.80;76.50;;;;;;5029026;28;88929;-41
2022/01/18 04:18:46;;;;;;;;;;;0.80;76.50;;;;;;5026230;28;86996;-41
2022/01/18 04:29:11;;;;;;;;;;;0.80;76.40;;;;;;5026291;28;86956;-41
2022/01/18 04:31:36;;;;;;;;;;;0.80;76.10;;;;;;5025708;28;89214;-41
2022/01/18 04:34:02;;;;;;;;;;;0.80;76.30;;;;;;5025407;28;88063;-41
2022/01/18 04:36:28;;;;;;;;;;;0.80;76.60;;;;;;5025852;28;88845;-41
2022/01/18 04:38:54;;;;;;;;;;;0.80;77.00;;;;;;5028443;28;89431;-41
2022/01/18 04:41:25;;;;;;;;;;;0.80;76.40;;;;;;5025177;28;88827;-41
2022/01/18 04:49:05;;;;;;;;;;;0.80;76.70;;;;;;5026123;28;86880;-41
2022/01/18 04:51:30;;;;;;;;;;;0.80;76.90;;;;;;5025918;28;88440;-41
2022/01/18 04:53:58;;;;;;;;;;;0.80;76.80;;;;;;5025601;28;87226;-41
2022/01/18 04:59:00;;;;;;;;;;;0.70;76.90;;;;;;5023540;28;88856;-41
2022/01/18 05:01:26;;;;;;;;;;;0.80;77.00;;;;;;5028736;28;86991;-41
2022/01/18 05:03:52;;;;;;;;;;;0.80;76.90;;;;;;5024907;28;89545;-41
2022/01/18 05:06:19;;;;;;;;;;;0.80;77.10;;;;;;5025653;28;87066;-41
2022/01/18 05:08:45;;;;;;;;;;;0.70;76.90;;;;;;5025374;28;87962;-41
2022/01/18 05:11:14;;;;;;;;;;;0.80;77.10;;;;;;5025144;28;87918;-41
2022/01/18 05:19:12;;;;;;;;;;;0.70;77.10;;;;;;5025032;28;88090;-41
2022/01/18 05:24:19;;;;;;;;;;;0.70;77.20;;;;;;5026634;28;87919;-41
2022/01/18 05:26:45;;;;;;;;;;;0.70;77.20;;;;;;5025092;28;87078;-41
2022/01/18 05:29:10;;;;;;;;;;;0.70;77.40;;;;;;5025147;28;88665;-41
2022/01/18 05:31:36;;;;;;;;;;;0.70;77.30;;;;;;5024696;28;89739;-41
2022/01/18 05:34:01;;;;;;;;;;;0.70;77.40;;;;;;5025161;28;87117;-41
2022/01/18 05:36:28;;;;;;;;;;;0.70;77.60;;;;;;5024943;28;87847;-41
2022/01/18 05:38:53;;;;;;;;;;;0.70;77.50;;;;;;5024619;28;89235;-41
2022/01/18 05:41:19;;;;;;;;;;;0.70;77.90;;;;;;5024122;28;87192;-41
2022/01/18 05:43:45;;;;;;;;;;;0.70;77.80;;;;;;5027506;28;88137;-41
2022/01/18 05:46:11;;;;;;;;;;;0.70;77.60;;;;;;5024755;28;86977;-41
2022/01/18 05:48:36;;;;;;;;;;;0.70;78.10;;;;;;5024359;28;88526;-41
2022/01/18 05:51:02;;;;;;;;;;;0.70;77.80;;;;;;5024274;28;89732;-41
2022/01/18 05:53:28;;;;;;;;;;;0.70;78.00;;;;;;5024796;28;87248;-41
2022/01/18 05:55:53;;;;;;;;;;;0.70;77.90;;;;;;5024955;28;88647;-41
2022/01/18 05:58:19;;;;;;;;;;;0.70;77.90;;;;;;5024249;28;89415;-41
2022/01/18 06:00:52;;;;;;;;;;;0.70;77.90;;;;;;5024523;28;87112;-41
2022/01/18 06:03:26;;;;;;;;;;;0.70;78.00;;;;;;5024650;28;88818;-41
2022/01/18 06:08:36;;;;;;;;;;;0.70;78.00;;;;;;5024354;28;86917;-41
2022/01/18 06:11:01;;;;;;;;;;;0.70;78.10;;;;;;5024102;28;89635;-41
2022/01/18 06:13:28;;;;;;;;;;;0.70;78.10;;;;;;5023819;28;88218;-41
2022/01/18 06:15:54;;;;;;;;;;;0.70;78.10;;;;;;5024321;28;89785;-41
2022/01/18 06:18:19;;;;;;;;;;;0.70;78.10;;;;;;5024001;28;89608;-41
2022/01/18 06:20:45;;;;;;;;;;;0.70;78.10;;;;;;5024312;28;87189;-41
2022/01/18 06:23:11;;;;;;;;;;;0.70;78.10;;;;;;5024169;28;88813;-41
2022/01/18 06:25:37;;;;;;;;;;;0.70;78.30;;;;;;5023991;28;89910;-41
2022/01/18 06:28:02;;;;;;;;;;;0.60;78.30;;;;;;5027214;28;87117;-41
2022/01/18 06:30:28;;;;;;;;;;;0.70;78.10;;;;;;5024517;28;88914;-41
2022/01/18 06:32:53;;;;;;;;;;;0.70;78.10;;;;;;5024046;28;87117;-41
2022/01/18 06:35:19;;;;;;;;;;;0.70;78.20;;;;;;5024405;28;87183;-41
2022/01/18 06:37:44;;;;;;;;;;;0.70;78.10;;;;;;5022481;28;91128;-41
2022/01/18 06:40:11;;;;;;;;;;;0.70;78.20;;;;;;5023867;28;86987;-41
2022/01/18 06:42:37;;;;;;;;;;;0.60;78.00;;;;;;5023738;28;88748;-41
2022/01/18 06:45:03;;;;;;;;;;;0.70;78.20;;;;;;5023549;28;89519;-41
2022/01/18 06:47:28;;;;;;;;;;;0.60;78.30;;;;;;5023905;28;86943;-41
2022/01/18 06:49:54;;;;;;;;;;;0.70;78.00;;;;;;5026396;28;88182;-41
2022/01/18 06:52:19;;;;;;;;;;;0.70;78.10;;;;;;5023823;28;86869;-41
2022/01/18 06:54:45;;;;;;;;;;;0.70;77.90;;;;;;5023996;28;88799;-41
2022/01/18 06:57:10;;;;;;;;;;;0.70;78.00;;;;;;5023415;28;89418;-41
2022/01/18 06:59:36;;;;;;;;;;;0.70;78.10;;;;;;5023654;28;87130;-41
2022/01/18 07:02:02;;;;;;;;;;;0.70;78.00;;;;;;5023084;28;88753;-41
2022/01/18 07:04:28;;;;;;;;;;;0.60;78.20;;;;;;5023565;28;87859;-41
2022/01/18 07:06:53;;;;;;;;;;;0.70;78.10;;;;;;5024078;28;87116;-41
2022/01/18 07:09:25;;;;;;;;;;;0.70;78.00;;;;;;5023263;28;88624;-41
2022/01/18 07:11:52;;;;;;;;;;;0.70;77.80;;;;;;5026393;28;88695;-41
2022/01/18 07:14:17;;;;;;;;;;;0.70;78.10;;;;;;5023628;28;88841;-41
2022/01/18 07:16:43;;;;;;;;;;;0.70;77.80;;;;;;5023072;28;89272;-41
2022/01/18 07:19:08;;;;;;;;;;;0.70;78.00;;;;;;5023807;28;86445;-41
2022/01/18 07:21:34;;;;;;;;;;;0.70;77.90;;;;;;5023537;28;88331;-41
2022/01/18 07:24:05;;;;;;;;;;;0.70;78.00;;;;;;5023015;28;88715;-41
2022/01/18 07:26:31;;;;;;;;;;;0.70;78.00;;;;;;5022966;28;87860;-41
2022/01/18 07:28:57;;;;;;;;;;;0.70;77.80;;;;;;5023370;28;89690;-41
2022/01/18 07:31:22;;;;;;;;;;;0.70;77.80;;;;;;5022922;28;89244;-41
2022/01/18 07:33:48;;;;;;;;;;;0.70;77.70;;;;;;5026329;28;86809;-41
2022/01/18 07:36:14;;;;;;;;;;;0.70;77.70;;;;;;5022972;28;89592;-41
2022/01/18 07:38:39;;;;;;;;;;;0.70;77.70;;;;;;5022890;28;87150;-41
2022/01/18 07:41:04;;;;;;;;;;;0.70;77.70;;;;;;5022971;28;87031;-41
2022/01/18 07:43:30;;;;;;;;;;;0.70;77.70;;;;;;5023553;28;89437;-41
2022/01/18 07:45:56;;;;;;;;;;;0.70;77.80;;;;;;5023074;28;87180;-41
2022/01/18 07:48:23;;;;;;;;;;;0.70;77.80;;;;;;5024400;28;87402;-41
2022/01/18 07:50:53;;;;;;;;;;;0.70;77.70;;;;;;5025669;28;90215;-41
2022/01/18 07:53:19;;;;;;;;;;;0.80;77.80;;;;;;5029532;28;87088;-41
2022/01/18 07:55:44;;;;;;;;;;;0.70;77.90;;;;;;5026377;28;89510;-41
2022/01/18 07:58:10;;;;;;;;;;;0.70;77.80;;;;;;5026477;28;87154;-41
2022/01/18 08:00:35;;;;;;;;;;;0.80;77.90;;;;;;5026464;28;88815;-41
2022/01/18 08:03:01;;;;;;;;;;;0.70;77.80;;;;;;5026390;28;88543;-41
2022/01/18 08:05:27;;;;;;;;;;;0.70;77.90;;;;;;5026563;28;87088;-41
2022/01/18 08:07:53;;;;;;;;;;;0.70;77.90;;;;;;5027001;28;87268;-41
2022/01/18 08:10:18;;;;;;;;;;;0.80;78.10;;;;;;5026199;28;88138;-41
2022/01/18 08:12:45;;;;;;;;;;;0.70;77.90;;;;;;5026366;28;87055;-41
2022/01/18 08:15:17;;;;;;;;;;;0.70;78.00;;;;;;5028263;28;88549;-41
2022/01/18 08:17:44;;;;;;;;;;;0.70;78.00;;;;;;5026733;28;87031;-41
2022/01/18 08:20:13;;;;;;;;;;;0.70;78.00;;;;;;5026164;28;88801;-41
2022/01/18 08:22:42;;;;;;;;;;;0.70;78.00;;;;;;5025744;28;89514;-41
2022/01/18 08:25:08;;;;;;;;;;;0.80;78.00;;;;;;5026218;28;87041;-41
2022/01/18 08:27:34;;;;;;;;;;;0.80;78.00;;;;;;5026323;28;89084;-41
2022/01/18 08:29:59;;;;;;;;;;;0.80;78.00;;;;;;5025954;28;89493;-41
2022/01/18 08:32:25;;;;;;;;;;;0.80;78.00;;;;;;5026696;28;86606;-41
2022/01/18 08:34:50;;;;;;;;;;;0.80;78.20;;;;;;5025865;28;88148;-41
2022/01/18 08:37:16;;;;;;;;;;;0.80;78.10;;;;;;5028580;28;88587;-41
2022/01/18 08:39:41;;;;;;;;;;;0.70;78.40;;;;;;5025210;28;89323;-41
2022/01/18 08:42:08;;;;;;;;;;;0.70;78.40;;;;;;5024366;28;89354;-41
2022/01/18 08:44:35;;;;;;;;;;;0.70;78.20;;;;;;5024812;28;87148;-41
2022/01/18 08:47:00;;;;;;;;;;;0.70;78.10;;;;;;5025014;28;88424;-41
2022/01/18 08:49:26;;;;;;;;;;;0.80;78.10;;;;;;5024600;28;87920;-41
2022/01/18 08:51:51;;;;;;;;;;;0.80;78.00;;;;;;5024677;28;87125;-41
2022/01/18 08:54:17;;;;;;;;;;;0.80;77.70;;;;;;5024703;28;87844;-40
2022/01/18 08:56:43;;;;;;;;;;;0.80;77.90;;;;;;5024672;28;89077;-40
2022/01/18 08:59:08;;;;;;;;;;;0.70;77.90;;;;;;5027202;28;86932;-41
2022/01/18 09:01:34;;;;;;;;;;;0.70;77.90;;;;;;5024039;28;89661;-41
2022/01/18 09:04:01;;;;;;;;;;;0.70;77.90;;;;;;5023895;28;88059;-41
2022/01/18 09:06:28;;;;;;;;;;;0.70;77.80;;;;;;5024121;28;89411;-41
2022/01/18 09:08:57;;;;;;;;;;;0.70;77.90;;;;;;5024066;28;89652;-41
2022/01/18 09:11:24;;;;;;;;;;;0.70;78.00;;;;;;5024234;28;87102;-41
2022/01/18 09:13:53;;;;;;;;;;;0.70;78.00;;;;;;5024213;28;88946;-41
2022/01/18 09:16:19;;;;;;;;;;;0.70;77.90;;;;;;5023869;28;89433;-41
2022/01/18 09:18:45;;;;;;;;;;;0.70;77.90;;;;;;5024295;28;87126;-41
2022/01/18 09:21:10;;;;;;;;;;;0.70;78.10;;;;;;5027001;28;89004;-41
2022/01/18 09:23:38;;;;;;;;;;;0.70;78.10;;;;;;5024283;28;87232;-41
2022/01/18 09:26:04;;;;;;;;;;;0.70;78.20;;;;;;5024002;28;88700;-41
2022/01/18 09:28:29;;;;;;;;;;;0.70;77.90;;;;;;5023020;28;89507;-41
2022/01/18 09:30:55;;;;;;;;;;;0.70;78.10;;;;;;5023840;28;86828;-41
2022/01/18 09:33:21;;;;;;;;;;;0.70;78.10;;;;;;5024048;28;87150;-41
2022/01/18 09:35:46;;;;;;;;;;;0.70;78.10;;;;;;5023423;28;89681;-41
2022/01/18 09:38:12;;;;;;;;;;;0.70;78.10;;;;;;5023879;28;86991;-41
2022/01/18 09:40:38;;;;;;;;;;;0.70;78.50;;;;;;4983972;28;1206390;-41
2022/01/18 09:43:10;;;;;;;;;;;0.70;78.40;;;;;;5025036;28;86979;-41
2022/01/18 09:45:35;;;;;;;;;;;0.70;78.20;;;;;;5025418;28;87845;-41
2022/01/18 09:48:03;;;;;;;;;;;0.80;78.20;;;;;;5024516;28;89564;-41
2022/01/18 09:50:31;;;;;;;;;;;0.80;78.30;;;;;;5024773;28;87211;-41
2022/01/18 09:52:58;;;;;;;;;;;0.70;78.50;;;;;;5024307;28;89214;-41
2022/01/18 09:55:25;;;;;;;;;;;0.70;78.60;;;;;;5024484;28;88863;-41
2022/01/18 09:57:52;;;;;;;;;;;0.70;78.50;;;;;;5024719;28;87141;-41
2022/01/18 10:00:18;;;;;;;;;;;0.70;78.40;;;;;;5024704;28;87937;-41
2022/01/18 10:02:44;;;;;;;;;;;0.70;78.70;;;;;;5027018;28;89546;-41
2022/01/18 10:05:16;;;;;;;;;;;0.70;78.80;;;;;;5024681;28;89019;-41
2022/01/18 10:07:42;;;;;;;;;;;0.70;78.70;;;;;;5024072;28;89231;-41
2022/01/18 10:10:07;;;;;;;;;;;0.80;78.40;;;;;;5024974;28;86414;-41
2022/01/18 10:12:33;;;;;;;;;;;0.70;78.50;;;;;;5023664;28;89160;-41
2022/01/18 10:15:00;;;;;;;;;;;0.80;78.60;;;;;;5024353;28;87743;-41
2022/01/18 10:17:28;;;;;;;;;;;0.80;78.40;;;;;;5023413;28;88130;-41
2022/01/18 10:19:54;;;;;;;;;;;0.80;78.40;;;;;;5024281;28;90153;-41
2022/01/18 10:22:25;;;;;;;;;;;0.80;78.40;;;;;;5024037;28;88967;-41
2022/01/18 10:24:52;;;;;;;;;;;0.80;78.50;;;;;;5027447;28;86945;-41
2022/01/18 10:27:18;;;;;;;;;;;0.80;78.40;;;;;;5023721;28;90022;-41
2022/01/18 10:29:45;;;;;;;;;;;0.90;78.50;;;;;;5024242;28;86744;-41
2022/01/18 10:32:29;;;;;;;;;;;0.90;78.20;;;;;;5024077;28;89276;-41
2022/01/18 10:37:20;;;;;;;;;;;0.90;78.10;;;;;;5024291;28;86871;-41
2022/01/18 10:39:50;;;;;;;;;;;0.90;77.80;;;;;;5024199;28;87498;-41
2022/01/18 10:42:17;;;;;;;;;;;0.90;77.80;;;;;;5022492;28;90352;-41
2022/01/18 10:44:45;;;;;;;;;;;0.90;78.20;;;;;;5023626;28;87163;-41
2022/01/18 10:47:10;;;;;;;;;;;0.90;77.90;;;;;;5026724;28;88944;-41
2022/01/18 10:49:44;;;;;;;;;;;0.90;78.40;;;;;;5023981;28;87113;-41
2022/01/18 10:52:11;;;;;;;;;;;0.90;78.30;;;;;;5024050;28;88914;-41
2022/01/18 10:54:45;;;;;;;;;;;0.90;78.30;;;;;;5023482;28;89417;-41
2022/01/18 10:57:12;;;;;;;;;;;0.90;78.40;;;;;;5023499;28;87084;-41
2022/01/18 10:59:38;;;;;;;;;;;0.90;78.60;;;;;;5024295;28;88713;-41
2022/01/18 11:02:07;;;;;;;;;;;0.90;78.60;;;;;;5023578;28;89536;-41
2022/01/18 11:04:33;;;;;;;;;;;0.90;78.70;;;;;;5023937;28;87228;-41
2022/01/18 11:07:00;;;;;;;;;;;0.90;78.70;;;;;;5023372;28;87887;-41
2022/01/18 11:09:25;;;;;;;;;;;0.90;78.80;;;;;;5026288;28;89306;-41
2022/01/18 11:11:51;;;;;;;;;;;1.00;78.70;;;;;;5023318;28;88885;-41
2022/01/18 11:14:19;;;;;;;;;;;1.00;78.70;;;;;;5023263;28;89266;-41
2022/01/18 11:16:46;;;;;;;;;;;1.00;78.90;;;;;;5023515;28;87012;-41
2022/01/18 11:21:47;;;;;;;;;;;1.00;78.80;;;;;;5022367;28;88029;-41
2022/01/18 11:24:16;;;;;;;;;;;1.00;79.10;;;;;;5023878;28;86298;-41
2022/01/18 11:26:43;;;;;;;;;;;1.00;78.90;;;;;;5023639;28;88101;-41
2022/01/18 11:29:09;;;;;;;;;;;1.00;78.80;;;;;;5023333;28;87178;-41
2022/01/18 11:31:35;;;;;;;;;;;1.00;78.60;;;;;;5025797;28;88045;-41
2022/01/18 11:34:01;;;;;;;;;;;1.00;79.10;;;;;;5023175;28;88232;-41
2022/01/18 11:36:37;;;;;;;;;;;1.00;79.00;;;;;;5023261;28;86971;-41
2022/01/18 11:39:04;;;;;;;;;;;1.00;79.10;;;;;;5023120;28;88802;-41
2022/01/18 11:41:31;;;;;;;;;;;1.00;79.20;;;;;;5022308;28;87999;-41
2022/01/18 11:43:59;;;;;;;;;;;1.10;79.10;;;;;;5023279;28;87124;-42
2022/01/18 11:46:24;;;;;;;;;;;1.10;79.10;;;;;;5023147;28;87961;-41
2022/01/18 11:48:58;;;;;;;;;;;1.10;79.00;;;;;;5023403;28;88238;-41
2022/01/18 11:51:34;;;;;;;;;;;1.00;78.90;;;;;;5025969;28;86844;-41
2022/01/18 11:54:19;;;;;;;;;;;1.10;79.10;;;;;;5022893;28;89030;-41
2022/01/18 11:56:45;;;;;;;;;;;1.00;79.30;;;;;;5022612;28;87909;-41
2022/01/18 11:59:10;;;;;;;;;;;1.10;79.00;;;;;;5023005;28;88818;-41
2022/01/18 12:01:50;;;;;;;;;;;1.10;79.10;;;;;;5022445;28;89652;-42
2022/01/18 12:04:34;;;;;;;;;;;1.00;79.00;;;;;;5023234;28;87007;-41
2022/01/18 12:06:59;;;;;;;;;;;1.00;79.20;;;;;;5022828;28;88370;-41
2022/01/18 12:09:37;;;;;;;;;;;1.10;78.80;;;;;;5022593;28;89486;-41
2022/01/18 12:12:04;;;;;;;;;;;1.10;78.80;;;;;;5022833;28;87034;-41
2022/01/18 12:14:33;;;;;;;;;;;1.10;78.70;;;;;;5025757;28;88835;-41
2022/01/18 12:17:15;;;;;;;;;;;1.10;78.30;;;;;;5023041;28;87114;-41
2022/01/18 12:19:41;;;;;;;;;;;1.10;78.10;;;;;;5022774;28;88825;-41
2022/01/18 12:22:07;;;;;;;;;;;1.10;78.10;;;;;;5021666;28;90334;-41
2022/01/18 12:24:32;;;;;;;;;;;1.10;78.30;;;;;;5022724;28;87091;-41
2022/01/18 12:27:01;;;;;;;;;;;1.10;78.40;;;;;;5022632;28;88635;-41
2022/01/18 12:34:25;;;;;;;;;;;1.10;78.30;;;;;;5023730;28;87387;-41
2022/01/18 12:36:51;;;;;;;;;;;1.10;78.20;;;;;;5028618;28;89454;-41
2022/01/18 12:39:17;;;;;;;;;;;1.10;77.80;;;;;;5026565;28;88896;-41
2022/01/18 12:41:48;;;;;;;;;;;1.20;77.70;;;;;;5025006;28;89328;-41
2022/01/18 12:44:23;;;;;;;;;;;1.20;77.90;;;;;;5026350;28;86945;-41
2022/01/18 12:47:07;;;;;;;;;;;1.20;78.10;;;;;;5025529;28;88869;-41
2022/01/18 12:49:34;;;;;;;;;;;1.20;77.50;;;;;;5025754;28;89702;-41
2022/01/18 12:51:59;;;;;;;;;;;1.20;77.40;;;;;;5025535;28;87100;-41
2022/01/18 12:54:35;;;;;;;;;;;1.20;77.30;;;;;;5025848;28;88631;-41
2022/01/18 12:57:13;;;;;;;;;;;1.20;77.40;;;;;;5025414;28;89523;-41
2022/01/18 12:59:58;;;;;;;;;;;1.20;77.40;;;;;;5028719;28;87158;-41
2022/01/18 13:02:23;;;;;;;;;;;1.20;77.00;;;;;;5025264;28;89682;-41
2022/01/18 13:04:59;;;;;;;;;;;1.20;76.90;;;;;;5025973;28;86457;-41
2022/01/18 13:07:25;;;;;;;;;;;1.30;77.00;;;;;;5025543;28;88452;-41
2022/01/18 13:09:57;;;;;;;;;;;1.30;76.70;;;;;;5025070;28;88561;-41
2022/01/18 13:12:29;;;;;;;;;;;1.30;76.70;;;;;;5024768;28;88060;-41
2022/01/18 13:14:56;;;;;;;;;;;1.30;76.50;;;;;;5025351;28;89123;-41
2022/01/18 13:23:34;;;;;;;;;;;1.20;76.00;;;;;;5028258;28;86896;-42
2022/01/18 13:26:01;;;;;;;;;;;1.30;76.10;;;;;;5025369;28;87028;-41
2022/01/18 13:28:37;;;;;;;;;;;1.30;76.30;;;;;;5025337;28;88766;-41
2022/01/18 13:31:19;;;;;;;;;;;1.30;76.30;;;;;;5025306;28;88674;-41
2022/01/18 13:33:51;;;;;;;;;;;1.30;76.40;;;;;;5025154;28;87052;-42
2022/01/18 13:36:17;;;;;;;;;;;1.30;76.30;;;;;;5025007;28;89364;-41
2022/01/18 13:38:42;;;;;;;;;;;1.30;76.40;;;;;;5024064;28;90232;-41
2022/01/18 13:41:08;;;;;;;;;;;1.30;76.30;;;;;;5024367;28;87241;-41
2022/01/18 13:43:34;;;;;;;;;;;1.30;76.40;;;;;;5025190;28;88055;-41
2022/01/18 13:45:59;;;;;;;;;;;1.30;76.20;;;;;;5026321;28;89292;-41
2022/01/18 13:48:29;;;;;;;;;;;1.30;75.90;;;;;;5025003;28;88891;-41
2022/01/18 13:50:58;;;;;;;;;;;1.30;76.00;;;;;;5024484;28;89445;-41
2022/01/18 13:53:28;;;;;;;;;;;1.30;76.00;;;;;;5024642;28;87093;-41
2022/01/18 13:55:54;;;;;;;;;;;1.40;76.00;;;;;;5025214;28;88976;-41
2022/01/18 13:58:20;;;;;;;;;;;1.30;76.00;;;;;;5024348;28;89165;-41
2022/01/18 14:00:46;;;;;;;;;;;1.30;76.20;;;;;;5024754;28;87192;-41
2022/01/18 14:03:27;;;;;;;;;;;1.30;76.10;;;;;;5024124;28;87933;-41
2022/01/18 14:05:52;;;;;;;;;;;1.40;76.00;;;;;;5027258;28;89561;-41
2022/01/18 14:08:18;;;;;;;;;;;1.40;76.20;;;;;;5024561;28;88832;-41
2022/01/18 14:10:43;;;;;;;;;;;1.40;76.10;;;;;;5024154;28;89829;-41
2022/01/18 14:13:26;;;;;;;;;;;1.40;76.30;;;;;;5024352;28;86963;-41
2022/01/18 14:15:51;;;;;;;;;;;1.40;76.20;;;;;;5024428;28;88998;-41
2022/01/18 14:18:17;;;;;;;;;;;1.40;76.10;;;;;;5024059;28;89436;-41
2022/01/18 14:20:42;;;;;;;;;;;1.40;76.10;;;;;;5024780;28;86141;-41
2022/01/18 14:23:18;;;;;;;;;;;1.40;76.10;;;;;;5024455;28;88257;-41
2022/01/18 14:25:46;;;;;;;;;;;1.40;76.20;;;;;;5024061;28;89495;-41
2022/01/18 14:28:14;;;;;;;;;;;1.40;76.20;;;;;;5026647;28;88064;-41
2022/01/18 14:30:43;;;;;;;;;;;1.40;76.10;;;;;;5023908;28;89136;-41
2022/01/18 14:33:12;;;;;;;;;;;1.40;76.10;;;;;;5024332;28;87168;-41
2022/01/18 14:35:39;;;;;;;;;;;1.40;76.10;;;;;;5024446;28;88523;-41
2022/01/18 14:38:06;;;;;;;;;;;1.50;76.30;;;;;;5023709;28;89533;-41
2022/01/18 14:40:36;;;;;;;;;;;1.40;76.30;;;;;;5023770;28;87151;-41
2022/01/18 14:43:10;;;;;;;;;;;1.40;76.30;;;;;;5024150;28;87552;-41
2022/01/18 14:45:41;;;;;;;;;;;1.40;76.30;;;;;;5024414;28;87818;-41
2022/01/18 14:48:11;;;;;;;;;;;1.50;76.50;;;;;;5024035;28;86956;-41
2022/01/18 14:50:38;;;;;;;;;;;1.50;76.30;;;;;;5026422;28;88850;-41
2022/01/18 14:53:05;;;;;;;;;;;1.40;76.30;;;;;;5023207;28;88065;-41
2022/01/18 14:55:31;;;;;;;;;;;1.50;76.30;;;;;;5023600;28;89217;-41
2022/01/18 14:57:58;;;;;;;;;;;1.50;76.30;;;;;;5023061;28;89485;-41
2022/01/18 15:00:24;;;;;;;;;;;1.40;77.10;;;;;;5023921;28;87110;-41
2022/01/18 15:02:50;;;;;;;;;;;1.50;76.70;;;;;;5023902;28;88901;-41
2022/01/18 15:05:16;;;;;;;;;;;1.50;76.30;;;;;;5023423;28;88301;-41
2022/01/18 15:07:42;;;;;;;;;;;1.50;76.70;;;;;;5023929;28;87116;-41
2022/01/18 15:10:08;;;;;;;;;;;1.50;76.40;;;;;;5023938;28;88593;-41
2022/01/18 15:12:34;;;;;;;;;;;1.50;76.40;;;;;;5026323;28;88756;-41
2022/01/18 15:15:01;;;;;;;;;;;1.50;76.30;;;;;;5023564;28;89020;-41
2022/01/18 15:17:26;;;;;;;;;;;1.50;76.50;;;;;;5022883;28;88701;-41
2022/01/18 15:19:52;;;;;;;;;;;1.40;76.20;;;;;;5023568;28;87149;-41
2022/01/18 15:22:18;;;;;;;;;;;1.50;76.20;;;;;;5023462;28;88975;-41
2022/01/18 15:24:43;;;;;;;;;;;1.40;76.20;;;;;;5022898;28;89247;-41
2022/01/18 15:27:09;;;;;;;;;;;1.50;76.30;;;;;;5023432;28;87183;-41
2022/01/18 15:29:35;;;;;;;;;;;1.40;76.20;;;;;;5023732;28;87000;-41
2022/01/18 15:32:00;;;;;;;;;;;1.40;76.20;;;;;;5022806;28;89833;-41
2022/01/18 15:34:26;;;;;;;;;;;1.40;76.30;;;;;;5026742;28;86371;-41
2022/01/18 15:36:52;;;;;;;;;;;1.50;76.40;;;;;;5022872;28;89457;-41
2022/01/18 15:39:18;;;;;;;;;;;1.40;76.40;;;;;;5023186;28;87043;-41
2022/01/18 15:41:43;;;;;;;;;;;1.50;76.60;;;;;;5022242;28;87987;-41
2022/01/18 15:44:09;;;;;;;;;;;1.40;76.40;;;;;;5023104;28;88890;-41
2022/01/18 15:46:35;;;;;;;;;;;1.40;76.50;;;;;;5023488;28;87138;-41
2022/01/18 15:49:02;;;;;;;;;;;1.50;76.40;;;;;;5023360;28;86900;-41
2022/01/18 15:51:28;;;;;;;;;;;1.50;76.30;;;;;;5022756;28;89899;-41
2022/01/18 15:53:53;;;;;;;;;;;1.40;76.00;;;;;;5022878;28;87109;-41
2022/01/18 15:56:19;;;;;;;;;;;1.50;75.90;;;;;;5025892;28;88959;-41
2022/01/18 15:58:45;;;;;;;;;;;1.40;76.00;;;;;;5023739;28;86435;-41
2022/01/18 16:01:10;;;;;;;;;;;1.50;76.00;;;;;;5023003;28;87839;-41
2022/01/18 16:03:36;;;;;;;;;;;1.50;75.90;;;;;;5022445;28;89476;-41